Time;durP1;ratioP1;P1;durP2;ratioP2;P2;SDS_P1;SDS_P2;PMS_P1;PMS_P2;Temp;Humidity;BMP_temperature;BMP_pressure;BME280_temperature;BME280_humidity;BME280_pressure;Samples;Min_cycle;Max_cycle;Signal;HPM_P1;HPM_P2
2022/08/27 00:00:31;;;;;;;25.13;14.27;;;;;;;17.84;59.02;100563.72;4769191;29;20175;-84
2022/08/27 00:02:58;;;;;;;22.10;13.35;;;;;;;17.94;59.12;100572.22;4769368;29;20528;-81
2022/08/27 00:05:23;;;;;;;26.70;14.20;;;;;;;17.70;58.73;100539.50;4755818;29;20063;-83
2022/08/27 00:07:55;;;;;;;26.73;13.63;;;;;;;17.65;59.29;100541.41;4778079;29;20043;-83
2022/08/27 00:10:25;;;;;;;30.10;15.93;;;;;;;17.81;58.88;100579.56;4768773;29;20039;-82
2022/08/27 00:12:54;;;;;;;31.30;16.63;;;;;;;17.80;59.34;100584.88;4772306;29;20503;-81
2022/08/27 00:15:20;;;;;;;27.75;14.27;;;;;;;17.77;59.88;100583.19;4772576;29;20058;-84
2022/08/27 00:17:47;;;;;;;23.95;14.95;;;;;;;17.74;59.81;100578.00;4783680;29;20061;-83
2022/08/27 00:20:17;;;;;;;18.10;12.43;;;;;;;17.50;59.92;100547.94;4787012;29;20047;-82
2022/08/27 00:22:43;;;;;;;19.50;13.02;;;;;;;17.41;60.12;100541.16;4776858;29;20174;-82
2022/08/27 00:25:11;;;;;;;19.10;11.50;;;;;;;17.45;59.73;100553.28;4762920;29;20051;-83
2022/08/27 00:27:37;;;;;;;20.23;12.50;;;;;;;17.35;59.58;100547.41;4792315;29;20546;-83
2022/08/27 00:30:11;;;;;;;26.33;14.10;;;;;;;17.35;60.04;100543.94;4785781;29;20055;-83
2022/08/27 00:32:39;;;;;;;24.23;13.95;;;;;;;17.41;59.83;100538.53;4771605;29;20047;-82
2022/08/27 00:35:06;;;;;;;18.27;12.77;;;;;;;17.68;59.79;100580.78;4772820;29;20078;-82
2022/08/27 00:37:33;;;;;;;25.33;14.23;;;;;;;17.60;59.68;100581.88;4767336;29;20175;-81
2022/08/27 00:39:59;;;;;;;21.73;13.13;;;;;;;17.40;59.49;100561.31;4786386;29;20050;-82
2022/08/27 00:42:26;;;;;;;26.33;13.20;;;;;;;17.39;59.24;100570.09;4786275;29;20059;-82
2022/08/27 00:44:52;;;;;;;29.48;14.32;;;;;;;17.47;59.40;100585.69;4767557;29;20059;-83
2022/08/27 00:47:23;;;;;;;22.98;13.55;;;;;;;17.04;59.44;100524.50;4769905;29;20688;-82
2022/08/27 00:49:57;;;;;;;17.67;12.77;;;;;;;17.08;59.56;100546.31;4783638;29;20046;-83
2022/08/27 00:52:28;;;;;;;21.23;13.20;;;;;;;16.95;59.68;100536.13;4768713;29;20522;-82
2022/08/27 00:55:01;;;;;;;23.40;13.70;;;;;;;17.28;59.62;100580.03;4783511;29;20482;-82
2022/08/27 00:57:30;;;;;;;21.67;13.20;;;;;;;17.04;60.30;100542.03;4787203;29;20051;-83
2022/08/27 00:59:56;;;;;;;23.35;13.32;;;;;;;16.48;60.30;100473.19;4771548;29;20649;-83
2022/08/27 01:02:28;;;;;;;20.98;13.30;;;;;;;16.80;60.66;100520.66;4766783;29;20051;-83
2022/08/27 01:05:05;;;;;;;26.15;14.23;;;;;;;17.20;60.64;100587.25;4769093;29;20069;-84
2022/08/27 01:07:36;;;;;;;20.08;12.70;;;;;;;16.93;60.18;100547.50;4782069;29;20246;-82
2022/08/27 01:10:06;;;;;;;18.10;12.30;;;;;;;17.16;60.21;100581.19;4760683;29;20415;-83
2022/08/27 01:12:33;;;;;;;24.63;14.38;;;;;;;17.13;60.42;100592.63;4763309;29;20046;-82
2022/08/27 01:15:02;;;;;;;20.17;12.15;;;;;;;17.04;60.20;100560.44;4785081;29;20043;-83
2022/08/27 01:17:30;;;;;;;22.38;12.90;;;;;;;17.09;60.24;100590.13;4782758;29;20090;-82
2022/08/27 01:20:01;;;;;;;20.08;12.60;;;;;;;17.05;60.10;100593.72;4783947;29;20515;-82
2022/08/27 01:22:29;;;;;;;23.05;12.82;;;;;;;17.01;60.73;100582.41;4783180;29;20138;-81
2022/08/27 01:24:59;;;;;;;18.98;12.02;;;;;;;16.95;60.46;100585.16;4771998;29;20058;-81
2022/08/27 01:27:30;;;;;;;20.33;12.15;;;;;;;16.97;60.97;100596.53;4791607;29;20043;-80
2022/08/27 01:29:57;;;;;;;17.58;11.98;;;;;;;16.91;60.86;100587.00;4795817;29;20401;-81
2022/08/27 01:32:27;;;;;;;24.45;13.93;;;;;;;16.93;61.30;100579.94;4778022;29;20043;-83
2022/08/27 01:34:54;;;;;;;16.60;12.77;;;;;;;16.48;61.36;100514.38;4768823;29;21063;-83
2022/08/27 01:37:22;;;;;;;22.83;13.10;;;;;;;16.64;61.55;100546.44;4768502;29;20458;-84
2022/08/27 01:39:49;;;;;;;21.23;13.98;;;;;;;16.65;61.36;100550.78;4784889;29;20189;-82
2022/08/27 01:42:23;;;;;;;29.75;15.05;;;;;;;16.75;61.64;100583.00;4783385;29;20062;-80
2022/08/27 01:44:59;;;;;;;21.35;12.50;;;;;;;16.67;61.99;100578.75;4783171;29;20043;-82
2022/08/27 01:47:27;;;;;;;21.77;13.48;;;;;;;16.65;61.69;100577.06;4781643;29;20074;-80
2022/08/27 01:49:54;;;;;;;19.55;13.00;;;;;;;16.74;61.68;100599.66;4783554;29;20055;-81
2022/08/27 01:52:23;;;;;;;21.15;13.85;;;;;;;16.61;61.82;100594.63;4782931;29;20424;-82
2022/08/27 01:54:50;;;;;;;20.63;13.43;;;;;;;16.52;62.00;100594.84;4785768;29;20111;-81
2022/08/27 01:57:17;;;;;;;18.65;13.15;;;;;;;16.55;62.17;100605.31;4770234;29;20051;-81
2022/08/27 01:59:43;;;;;;;21.05;13.02;;;;;;;16.53;62.24;100602.69;4781023;29;20055;-80
2022/08/27 02:02:13;;;;;;;23.35;14.25;;;;;;;16.53;62.38;100610.56;4767261;29;20051;-80
2022/08/27 02:04:40;;;;;;;27.75;14.63;;;;;;;16.51;62.52;100614.13;4774134;29;20047;-83
2022/08/27 02:07:06;;;;;;;18.23;13.00;;;;;;;16.40;62.78;100583.69;4765538;29;20048;-81
2022/08/27 02:09:32;;;;;;;22.67;12.60;;;;;;;16.40;62.85;100588.94;4783162;29;20090;-80
2022/08/27 02:11:59;;;;;;;19.60;13.00;;;;;;;16.43;62.45;100595.91;4782492;29;20062;-81
2022/08/27 02:14:26;;;;;;;18.88;12.20;;;;;;;16.40;62.59;100601.22;4782792;29;20096;-80
2022/08/27 02:16:52;;;;;;;18.75;12.75;;;;;;;16.21;62.73;100577.97;4750181;29;20058;-80
2022/08/27 02:19:20;;;;;;;35.72;19.83;;;;;;;16.16;62.91;100571.06;4766604;29;20047;-82
2022/08/27 02:21:47;;;;;;;24.30;14.13;;;;;;;16.47;63.09;100610.69;4768575;29;20188;-82
2022/08/27 02:24:13;;;;;;;20.45;12.40;;;;;;;16.34;63.13;100598.72;4783232;29;20882;-82
2022/08/27 02:26:39;;;;;;;34.83;18.85;;;;;;;16.44;63.04;100621.25;4766820;29;20051;-82
2022/08/27 02:29:06;;;;;;;29.65;18.08;;;;;;;16.34;63.35;100610.06;4774880;29;20043;-82
2022/08/27 02:31:32;;;;;;;21.35;13.45;;;;;;;16.47;63.52;100626.44;4772392;29;20063;-81
2022/08/27 02:33:59;;;;;;;48.40;25.13;;;;;;;16.46;63.57;100622.09;4786082;29;20120;-81
2022/08/27 02:36:25;;;;;;;46.40;24.08;;;;;;;16.36;63.93;100603.03;4794257;29;20087;-81
2022/08/27 02:38:53;;;;;;;34.30;22.30;;;;;;;16.58;64.19;100622.75;4804510;29;20055;-80
2022/08/27 02:41:19;;;;;;;48.92;25.13;;;;;;;16.45;64.62;100588.84;4785715;29;20051;-81
2022/08/27 02:43:45;;;;;;;20.45;14.68;;;;;;;16.50;64.17;100600.13;4763734;29;20043;-81
2022/08/27 02:46:12;;;;;;;45.40;27.73;;;;;;;16.55;64.43;100611.41;4771156;29;20078;-82
2022/08/27 02:48:40;;;;;;;42.63;24.42;;;;;;;16.64;64.59;100627.88;4783274;29;20440;-83
2022/08/27 02:51:06;;;;;;;35.35;20.08;;;;;;;16.29;64.87;100555.91;4755119;29;20411;-80
2022/08/27 02:53:35;;;;;;;46.83;25.58;;;;;;;16.71;64.78;100624.22;4769323;29;20527;-82
2022/08/27 02:56:01;;;;;;;59.70;31.15;;;;;;;16.70;65.08;100615.47;4781977;29;20053;-81
2022/08/27 02:58:27;;;;;;;57.33;31.60;;;;;;;16.50;65.16;100578.25;4766164;29;20419;-81
2022/08/27 03:00:55;;;;;;;56.30;30.58;;;;;;;16.93;65.57;100629.00;4762098;29;20051;-79
2022/08/27 03:03:21;;;;;;;56.53;33.38;;;;;;;16.91;65.38;100618.53;4781629;29;20043;-81
2022/08/27 03:05:48;;;;;;;64.60;33.22;;;;;;;16.82;65.48;100597.69;4785174;29;20047;-81
2022/08/27 03:08:14;;;;;;;50.00;29.38;;;;;;;16.78;65.51;100578.53;4769025;29;20067;-82
2022/08/27 03:10:40;;;;;;;53.55;28.50;;;;;;;17.21;65.46;100644.19;4785419;29;20062;-81
2022/08/27 03:13:06;;;;;;;58.03;33.95;;;;;;;16.66;65.21;100539.38;4774618;29;20047;-80
2022/08/27 03:15:32;;;;;;;64.97;37.75;;;;;;;17.22;65.23;100628.38;4785770;29;20377;-80
2022/08/27 03:18:17;;;;;;;28.83;17.23;;;;;;;17.27;65.67;100628.28;4787798;29;20051;-79
2022/08/27 03:20:46;;;;;;;27.92;16.58;;;;;;;17.25;65.05;100632.72;4774189;29;20511;-80
2022/08/27 03:23:14;;;;;;;44.92;23.80;;;;;;;17.06;64.87;100595.44;4776345;29;21678;-84
2022/08/27 03:25:44;;;;;;;38.53;22.75;;;;;;;17.13;64.63;100595.25;4775479;29;20053;-81
2022/08/27 03:28:13;;;;;;;43.00;26.35;;;;;;;17.25;64.41;100588.84;4752289;29;20045;-84
2022/08/27 03:30:40;;;;;;;54.22;28.13;;;;;;;17.48;64.05;100602.34;4779646;29;20063;-85
2022/08/27 03:33:07;;;;;;;51.50;26.85;;;;;;;17.86;64.03;100647.88;4786177;29;20082;-82
2022/08/27 03:35:33;;;;;;;52.53;29.02;;;;;;;17.73;63.64;100600.84;4781046;29;20046;-83
2022/08/27 03:37:59;;;;;;;56.78;29.70;;;;;;;18.17;63.39;100655.03;4789765;29;20051;-86
2022/08/27 03:40:25;;;;;;;50.83;28.70;;;;;;;18.32;63.00;100649.31;4786319;29;20134;-87
2022/08/27 03:42:51;;;;;;;47.75;29.13;;;;;;;18.38;62.69;100639.53;4774807;29;20486;-89
2022/08/27 03:45:17;;;;;;;46.33;28.05;;;;;;;18.29;62.53;100591.47;4773189;29;20051;-80
2022/08/27 03:47:43;;;;;;;50.03;28.15;;;;;;;18.55;62.20;100618.81;4771779;29;20511;-83
2022/08/27 03:50:10;;;;;;;48.20;29.20;;;;;;;18.80;61.83;100644.47;4769557;29;20045;-82
2022/08/27 03:52:36;;;;;;;48.60;28.38;;;;;;;18.83;61.58;100618.03;4785399;29;20051;-82
2022/08/27 03:55:04;;;;;;;50.05;29.85;;;;;;;19.03;61.51;100635.03;4753429;29;20078;-81
2022/08/27 03:57:31;;;;;;;51.90;30.77;;;;;;;19.00;61.16;100590.28;4769657;29;20053;-81
2022/08/27 03:59:57;;;;;;;61.97;35.08;;;;;;;19.24;60.62;100602.69;4757809;29;20482;-79
2022/08/27 04:02:27;;;;;;;54.55;33.70;;;;;;;19.65;60.25;100643.59;4804170;29;20080;-81
2022/08/27 04:04:56;;;;;;;49.72;29.85;;;;;;;19.49;59.85;100587.81;4803550;29;20047;-82
2022/08/27 04:07:23;;;;;;;50.67;30.05;;;;;;;19.76;59.67;100596.56;4802126;29;20039;-81
2022/08/27 04:09:49;;;;;;;56.05;32.92;;;;;;;20.06;59.25;100622.88;4793458;29;20039;-82
2022/08/27 04:12:15;;;;;;;58.58;34.42;;;;;;;20.15;58.95;100601.41;4797135;29;20364;-86
2022/08/27 04:14:41;;;;;;;59.47;37.75;;;;;;;20.31;58.67;100593.78;4807104;29;20440;-81
2022/08/27 04:17:08;;;;;;;68.03;39.22;;;;;;;20.62;58.06;100611.13;4774157;29;20106;-82
2022/08/27 04:19:36;;;;;;;60.70;37.72;;;;;;;20.65;57.62;100602.22;4775631;29;20861;-81
2022/08/27 04:22:05;;;;;;;61.78;36.95;;;;;;;20.96;57.01;100634.59;4792539;29;20061;-81
2022/08/27 04:24:33;;;;;;;66.80;37.22;;;;;;;20.96;57.11;100613.44;4806927;29;20031;-81
2022/08/27 04:27:04;;;;;;;58.03;36.33;;;;;;;20.98;56.71;100588.63;4807988;29;20061;-80
2022/08/27 04:29:31;;;;;;;70.30;40.70;;;;;;;21.42;56.32;100626.59;4792617;29;20050;-82
2022/08/27 04:31:58;;;;;;;73.55;40.70;;;;;;;21.55;55.82;100633.09;4775855;29;20059;-82
2022/08/27 04:34:24;;;;;;;71.32;38.72;;;;;;;21.52;55.27;100606.75;4773267;29;20051;-83
2022/08/27 04:36:55;;;;;;;67.00;38.08;;;;;;;21.90;55.00;100644.03;4785610;29;20111;-82
2022/08/27 04:39:21;;;;;;;67.25;40.17;;;;;;;21.97;54.18;100642.81;4781856;29;20142;-81
2022/08/27 04:41:52;;;;;;;67.72;40.78;;;;;;;22.09;54.15;100643.22;4782952;29;20050;-82
2022/08/27 04:44:18;;;;;;;66.28;40.53;;;;;;;22.23;53.59;100624.06;4784845;29;20043;-80
2022/08/27 04:46:44;;;;;;;66.97;39.38;;;;;;;22.62;53.27;100646.25;4772539;29;20043;-80
2022/08/27 04:49:12;;;;;;;67.10;39.25;;;;;;;22.77;52.99;100642.00;4784226;29;20569;-80
2022/08/27 04:51:39;;;;;;;71.35;39.65;;;;;;;22.93;52.30;100597.03;4787868;29;20086;-80
2022/08/27 04:54:05;;;;;;;73.95;43.08;;;;;;;23.39;51.52;100616.06;4749675;29;20155;-82
2022/08/27 04:56:33;;;;;;;70.75;43.80;;;;;;;23.69;50.93;100618.13;4783233;29;20047;-83
2022/08/27 04:59:02;;;;;;;77.60;47.70;;;;;;;23.76;49.88;100608.88;4784362;29;20076;-83
2022/08/27 05:01:29;;;;;;;74.13;46.40;;;;;;;24.06;49.58;100623.31;4784016;29;20081;-83
2022/08/27 05:03:57;;;;;;;83.57;49.35;;;;;;;24.20;49.31;100614.63;4766753;29;20126;-82
2022/08/27 05:06:24;;;;;;;90.88;52.67;;;;;;;24.42;48.76;100626.75;4751893;29;20051;-81
2022/08/27 05:08:50;;;;;;;84.43;52.47;;;;;;;24.48;48.30;100599.84;4783149;29;20043;-82
2022/08/27 05:11:31;;;;;;;90.88;53.55;;;;;;;24.82;47.84;100608.66;4783919;29;20070;-82
2022/08/27 05:14:00;;;;;;;86.28;52.30;;;;;;;25.23;47.19;100597.47;4783151;29;20588;-80
2022/08/27 05:16:26;;;;;;;85.85;51.17;;;;;;;26.28;46.67;100622.38;4769852;29;20524;-80
2022/08/27 05:18:52;;;;;;;83.13;49.63;;;;;;;27.64;45.03;100599.44;4783414;29;20070;-81
2022/08/27 05:21:26;;;;;;;90.55;51.20;;;;;;;29.24;42.60;100603.38;4767221;29;20146;-81
2022/08/27 05:23:55;;;;;;;88.47;53.15;;;;;;;30.87;40.18;100613.09;4783009;29;20058;-82
2022/08/27 05:26:22;;;;;;;83.70;54.80;;;;;;;32.17;38.02;100598.66;4783553;29;20047;-82
2022/08/27 05:28:48;;;;;;;92.90;57.92;;;;;;;33.39;35.98;100600.34;4783468;29;20039;-82
2022/08/27 05:31:15;;;;;;;85.22;58.28;;;;;;;34.38;34.06;100598.25;4763018;29;20832;-79
2022/08/27 05:33:42;;;;;;;93.90;63.95;;;;;;;35.23;32.35;100598.00;4783507;29;20055;-81
2022/08/27 05:36:25;;;;;;;89.93;63.38;;;;;;;36.17;30.25;100600.19;4769271;29;20503;-81
2022/08/27 05:38:52;;;;;;;105.95;72.32;;;;;;;36.90;29.36;100601.47;4783246;29;20043;-81
2022/08/27 05:41:24;;;;;;;115.65;84.28;;;;;;;37.20;28.51;100591.00;4782827;29;20055;-82
2022/08/27 05:43:52;;;;;;;117.28;88.18;;;;;;;37.50;26.75;100598.66;4785725;29;20047;-81
2022/08/27 05:46:20;;;;;;;112.53;89.85;;;;;;;37.48;26.01;100601.53;4783990;29;20051;-81
2022/08/27 05:48:49;;;;;;;118.93;91.13;;;;;;;37.72;26.11;100579.97;4767078;29;20122;-81
2022/08/27 05:51:18;;;;;;;125.53;91.28;;;;;;;38.13;24.84;100577.97;4780075;29;20090;-83
2022/08/27 05:53:45;;;;;;;125.10;89.45;;;;;;;38.17;24.97;100572.19;4782736;29;20047;-84
2022/08/27 05:56:20;;;;;;;119.40;88.63;;;;;;;38.11;24.45;100606.34;4752297;29;20054;-82
2022/08/27 06:01:57;;;;;;;119.28;86.20;;;;;;;38.32;23.59;100603.00;4766834;29;20058;-84
2022/08/27 06:04:48;;;;;;;;;;;;;;;;;;;;;
2022/08/27 06:07:38;;;;;;;106.93;81.43;;;;;;;38.73;23.11;100574.78;4754450;30;20129;-85
2022/08/27 06:10:08;;;;;;;109.88;80.72;;;;;;;39.19;22.32;100579.38;4764317;30;20122;-84
2022/08/27 06:13:06;;;;;;;105.68;79.53;;;;;;;39.76;21.76;100596.25;4755752;29;20047;-81
2022/08/27 06:16:06;;;;;;;91.30;70.47;;;;;;;39.15;21.10;100562.59;4789280;29;20051;-82
2022/08/27 06:18:44;;;;;;;93.22;71.40;;;;;;;39.14;21.41;100525.53;4778200;29;20067;-82
2022/08/27 06:21:27;;;;;;;91.25;71.40;;;;;;;40.12;20.46;100542.91;4801832;29;20138;-83
2022/08/27 06:23:56;;;;;;;89.47;69.75;;;;;;;40.76;19.67;100576.78;4793679;29;20039;-83
2022/08/27 06:26:27;;;;;;;88.40;67.22;;;;;;;41.22;19.31;100560.03;4783995;29;20735;-83
2022/08/27 06:29:05;;;;;;;81.30;62.03;;;;;;;41.96;18.90;100574.19;4784010;29;20399;-87
2022/08/27 06:31:34;;;;;;;92.32;68.28;;;;;;;42.30;18.08;100577.88;4788638;29;20063;-81
2022/08/27 06:34:02;;;;;;;80.57;63.70;;;;;;;42.38;17.21;100565.13;4771878;29;20416;-81
2022/08/27 06:36:34;;;;;;;81.25;61.92;;;;;;;43.00;17.14;100593.25;4781953;29;20047;-82
2022/08/27 06:39:14;;;;;;;76.88;63.92;;;;;;;43.42;17.13;100594.94;4783286;29;20043;-88
2022/08/27 06:41:48;;;;;;;79.13;61.50;;;;;;;43.52;17.18;100573.44;4773703;29;20150;-83
2022/08/27 06:44:23;;;;;;;78.95;62.10;;;;;;;44.41;16.27;100569.38;4781602;29;20062;-83
2022/08/27 06:46:59;;;;;;;81.88;65.43;;;;;;;45.15;15.36;100552.41;4786050;29;20051;-81
2022/08/27 06:49:25;;;;;;;85.05;64.90;;;;;;;45.92;14.97;100568.53;4786261;29;20043;-80
2022/08/27 06:51:51;;;;;;;84.45;68.13;;;;;;;46.40;14.36;100580.63;4776063;29;20051;-81
2022/08/27 06:54:18;;;;;;;87.13;68.90;;;;;;;47.07;13.91;100584.28;4758597;29;20070;-80
2022/08/27 06:56:45;;;;;;;88.10;66.70;;;;;;;47.55;13.44;100573.28;4766940;29;20051;-81
2022/08/27 06:59:19;;;;;;;78.75;64.78;;;;;;;47.83;13.15;100547.72;4770404;29;20138;-90
2022/08/27 07:01:58;;;;;;;76.65;64.50;;;;;;;48.30;12.93;100556.94;4786226;29;20053;-82
2022/08/27 07:04:25;;;;;;;75.30;64.80;;;;;;;48.67;12.58;100567.53;4786377;29;20431;-82
2022/08/27 07:06:51;;;;;;;75.65;64.95;;;;;;;48.85;12.37;100548.03;4773521;29;20050;-81
2022/08/27 07:09:21;;;;;;;69.88;58.08;;;;;;;49.16;12.25;100564.25;4778248;29;20051;-79
2022/08/27 07:11:47;;;;;;;73.25;63.75;;;;;;;49.43;11.50;100564.38;4782957;29;20059;-82
2022/08/27 07:14:15;;;;;;;75.80;63.70;;;;;;;49.72;11.30;100555.91;4766368;29;20055;-81
2022/08/27 07:16:44;;;;;;;67.18;56.38;;;;;;;50.26;11.40;100570.09;4783737;29;20051;-81
2022/08/27 07:19:13;;;;;;;68.15;54.35;;;;;;;50.32;10.34;100552.47;4769095;29;20577;-80
2022/08/27 07:21:39;;;;;;;56.80;50.53;;;;;;;49.42;10.52;100559.13;4765121;29;20055;-81
2022/08/27 07:24:15;;;;;;;64.38;53.05;;;;;;;48.28;10.62;100537.03;4773861;29;20104;-80
2022/08/27 07:26:46;;;;;;;61.97;50.65;;;;;;;48.01;11.40;100548.66;4744826;29;20078;-82
2022/08/27 07:29:16;;;;;;;71.07;52.80;;;;;;;47.58;11.25;100548.03;4763132;29;20086;-81
2022/08/27 07:32:11;;;;;;;62.97;52.30;;;;;;;46.91;11.39;100528.03;4763558;30;20077;-83
2022/08/27 07:35:03;;;;;;;58.55;49.13;;;;;;;47.22;11.75;100520.53;4766018;30;20093;-79
2022/08/27 07:37:32;;;;;;;54.92;48.90;;;;;;;47.86;11.15;100532.66;4755543;30;20047;-81
2022/08/27 07:39:58;;;;;;;55.90;49.78;;;;;;;48.45;10.92;100543.44;4775566;30;20055;-83
2022/08/27 07:45:16;;;;;;;57.10;47.65;;;;;;;50.19;9.90;100542.66;4752437;30;20051;-84
2022/08/27 07:47:42;;;;;;;56.08;46.85;;;;;;;50.76;8.98;100523.78;4746569;30;20047;-83
2022/08/27 07:50:09;;;;;;;54.72;47.17;;;;;;;51.27;9.21;100564.88;4747033;30;20119;-83
2022/08/27 07:52:38;;;;;;;56.72;49.50;;;;;;;51.48;8.55;100540.03;4749098;30;20119;-82
2022/08/27 07:55:04;;;;;;;49.58;43.42;;;;;;;51.42;9.06;100555.81;4732405;30;20054;-82
2022/08/27 07:57:32;;;;;;;50.45;43.17;;;;;;;50.49;9.66;100522.75;4750637;30;20039;-83
2022/08/27 08:00:02;;;;;;;50.78;43.80;;;;;;;50.44;8.59;100492.25;4766582;30;20102;-80
2022/08/27 08:02:58;;;;;;;46.50;40.85;;;;;;;50.71;9.14;100543.97;4751627;30;20048;-80
2022/08/27 08:05:25;;;;;;;48.35;41.47;;;;;;;51.37;8.59;100550.25;4759255;30;20505;-78
2022/08/27 08:07:54;;;;;;;45.63;38.22;;;;;;;52.51;8.08;100537.59;4747233;30;20530;-80
2022/08/27 08:10:22;;;;;;;45.00;38.85;;;;;;;52.42;8.14;100533.69;4753439;30;20052;-79
2022/08/27 08:12:50;;;;;;;55.15;36.50;;;;;;;53.19;7.83;100541.13;4765747;30;20508;-79
2022/08/27 08:15:34;;;;;;;44.45;37.20;;;;;;;53.62;7.16;100537.09;4735416;30;20047;-80
2022/08/27 08:18:03;;;;;;;38.95;34.45;;;;;;;53.87;6.84;100534.19;4766256;30;20054;-79
2022/08/27 08:20:33;;;;;;;44.00;37.45;;;;;;;54.19;6.81;100544.00;4766180;30;20120;-82
2022/08/27 08:22:59;;;;;;;44.33;36.47;;;;;;;54.93;6.63;100540.38;4767358;30;20047;-82
2022/08/27 08:25:26;;;;;;;38.65;34.35;;;;;;;54.97;6.32;100535.03;4767428;30;20056;-79
2022/08/27 08:27:51;;;;;;;45.30;34.55;;;;;;;55.06;6.38;100533.25;4766569;30;20047;-80
2022/08/27 08:30:18;;;;;;;44.03;37.42;;;;;;;55.32;6.27;100532.97;4773339;29;20063;-79
2022/08/27 08:32:45;;;;;;;44.35;36.92;;;;;;;54.09;6.58;100520.97;4769025;29;20043;-81
2022/08/27 08:35:12;;;;;;;43.80;34.38;;;;;;;54.82;6.70;100524.03;4764398;29;20053;-77
2022/08/27 08:37:38;;;;;;;37.22;33.17;;;;;;;55.55;5.83;100499.75;4785789;29;21117;-86
2022/08/27 08:40:05;;;;;;;36.30;32.42;;;;;;;55.29;6.26;100519.63;4771597;29;20044;-81
2022/08/27 08:42:50;;;;;;;36.58;32.70;;;;;;;55.74;6.05;100516.53;4786796;29;20051;-81
2022/08/27 08:45:24;;;;;;;43.97;36.65;;;;;;;55.95;5.79;100486.38;4774562;29;20100;-83
2022/08/27 08:47:58;;;;;;;41.05;34.13;;;;;;;55.78;6.17;100506.44;4772079;30;20048;-80
2022/08/27 08:50:33;;;;;;;35.90;31.73;;;;;;;55.75;6.34;100520.13;4776056;30;20484;-83
2022/08/27 08:53:18;;;;;;;34.40;30.00;;;;;;;55.05;5.84;100500.97;4781741;29;20052;-82
2022/08/27 08:56:19;;;;;;;30.90;27.05;;;;;;;54.03;5.91;100507.13;4771002;30;20118;-84
2022/08/27 08:59:18;;;;;;;30.83;27.15;;;;;;;53.65;6.58;100440.06;4783830;29;20054;-82
2022/08/27 09:02:14;;;;;;;34.80;26.58;;;;;;;52.44;6.25;100419.63;4784663;29;20047;-79
2022/08/27 09:04:44;;;;;;;30.98;25.42;;;;;;;51.11;7.46;100486.38;4787423;29;20149;-83
2022/08/27 09:07:28;;;;;;;28.50;25.63;;;;;;;51.40;7.50;100488.75;4789242;29;20524;-83
2022/08/27 09:10:00;;;;;;;32.78;25.80;;;;;;;51.88;6.51;100483.06;4773619;30;20078;-83
2022/08/27 09:12:32;;;;;;;29.83;24.80;;;;;;;51.54;6.70;100500.16;4788535;29;20043;-83
2022/08/27 09:15:21;;;;;;;30.52;25.75;;;;;;;50.67;7.59;100487.47;4787074;29;20051;-84
2022/08/27 09:17:47;;;;;;;21.42;17.80;;;;;;;49.76;7.88;100486.31;4767899;29;20055;-79
2022/08/27 09:20:17;;;;;;;15.50;11.25;;;;;;;49.97;7.23;100485.44;4767524;30;20054;-81
2022/08/27 09:23:10;;;;;;;10.60;9.50;;;;;;;48.90;7.13;100480.16;4766929;29;20096;-85
2022/08/27 09:25:41;;;;;;;20.27;10.15;;;;;;;48.73;7.07;100469.16;4764186;29;20051;-80
2022/08/27 09:31:08;;;;;;;8.90;8.00;;;;;;;47.53;7.36;100457.84;4784287;29;20067;-82
2022/08/27 09:33:36;;;;;;;10.93;9.57;;;;;;;47.49;7.71;100487.78;4785030;29;21228;-82
2022/08/27 09:36:07;;;;;;;15.45;9.68;;;;;;;47.08;7.75;100466.78;4783886;29;20047;-82
2022/08/27 09:38:35;;;;;;;14.85;10.50;;;;;;;46.43;8.51;100470.19;4771921;29;20569;-81
2022/08/27 09:41:12;;;;;;;14.68;11.57;;;;;;;45.71;8.52;100473.72;4753500;29;20050;-80
2022/08/27 09:43:42;;;;;;;15.23;12.15;;;;;;;45.54;9.00;100462.47;4765707;29;20080;-84
2022/08/27 09:46:35;;;;;;;17.38;12.30;;;;;;;47.05;8.13;100470.81;4768339;29;20137;-85
2022/08/27 09:49:15;;;;;;;17.27;12.57;;;;;;;47.77;7.91;100466.06;4781582;29;20052;-80
2022/08/27 09:51:50;;;;;;;14.40;12.95;;;;;;;46.95;8.77;100443.09;4773911;29;20108;-82
2022/08/27 09:54:28;;;;;;;15.35;13.80;;;;;;;46.73;8.63;100427.16;4757548;29;20055;-82
2022/08/27 09:56:56;;;;;;;19.23;15.02;;;;;;;46.68;8.39;100477.38;4785428;29;20050;-84
2022/08/27 09:59:40;;;;;;;17.03;15.20;;;;;;;46.76;8.88;100471.53;4767084;29;20100;-83
2022/08/27 10:02:16;;;;;;;23.13;17.30;;;;;;;47.42;8.81;100467.81;4767783;29;20043;-82
2022/08/27 10:05:12;;;;;;;21.88;17.38;;;;;;;47.80;8.54;100463.63;4798575;29;20054;-84
2022/08/27 10:08:23;;;;;;;27.27;17.13;;;;;;;46.37;9.13;100475.75;4782196;29;20054;-82
2022/08/27 10:11:02;;;;;;;21.77;18.73;;;;;;;44.18;10.18;100411.78;4759665;30;20052;-83
2022/08/27 10:13:39;;;;;;;23.98;18.20;;;;;;;42.88;11.30;100456.25;4739540;30;20557;-82
2022/08/27 10:16:56;;;;;;;19.58;15.73;;;;;;;42.78;10.99;100472.22;4771549;29;20066;-80
2022/08/27 10:19:50;;;;;;;29.42;21.00;;;;;;;42.26;11.38;100447.34;4783467;29;20138;-79
2022/08/27 10:22:37;;;;;;;23.48;20.35;;;;;;;41.50;11.64;100457.31;4775907;29;20059;-82
2022/08/27 10:25:38;;;;;;;23.42;19.38;;;;;;;40.56;12.83;100459.31;4770943;29;20131;-81
2022/08/27 10:28:26;;;;;;;27.23;21.13;;;;;;;41.31;12.73;100461.63;4759485;30;20177;-80
2022/08/27 10:30:58;;;;;;;19.42;17.33;;;;;;;41.95;12.82;100463.25;4783169;29;20650;-80
2022/08/27 10:33:55;;;;;;;18.55;16.50;;;;;;;43.37;11.38;100452.38;4787837;29;20059;-79
2022/08/27 10:36:39;;;;;;;18.42;15.40;;;;;;;43.91;11.20;100444.81;4778459;30;20428;-78
2022/08/27 10:39:11;;;;;;;16.58;12.75;;;;;;;43.41;10.90;100451.72;4785931;29;20043;-79
2022/08/27 10:41:42;;;;;;;14.85;13.30;;;;;;;41.76;11.50;100456.63;4753915;29;20049;-79
2022/08/27 10:44:16;;;;;;;15.93;14.43;;;;;;;40.94;12.51;100456.28;4770231;30;20516;-78
2022/08/27 10:47:20;;;;;;;17.00;11.77;;;;;;;40.01;12.88;100455.19;4768234;30;20055;-81
2022/08/27 10:49:57;;;;;;;14.38;11.23;;;;;;;39.28;12.98;100453.13;4780607;29;20047;-81
2022/08/27 10:52:52;;;;;;;15.05;12.13;;;;;;;38.35;13.84;100466.81;4766835;29;20048;-81
2022/08/27 10:55:25;;;;;;;12.55;11.32;;;;;;;37.47;14.60;100428.91;4779097;29;20048;-83
2022/08/27 10:58:13;;;;;;;15.68;11.50;;;;;;;37.47;14.80;100441.63;4767174;29;20039;-81
2022/08/27 11:01:01;;;;;;;13.77;11.95;;;;;;;37.19;14.69;100445.56;4769875;29;20539;-82
2022/08/27 11:03:42;;;;;;;13.77;12.38;;;;;;;36.85;14.73;100448.47;4753748;29;20474;-80
2022/08/27 11:06:41;;;;;;;16.80;12.48;;;;;;;36.57;15.65;100454.22;4762640;29;20047;-84
2022/08/27 11:09:23;;;;;;;19.13;13.70;;;;;;;36.26;15.91;100450.28;4776720;29;20460;-82
2022/08/27 11:12:01;;;;;;;18.50;13.45;;;;;;;36.34;15.79;100435.91;4748784;29;20055;-80
2022/08/27 11:14:59;;;;;;;20.00;13.15;;;;;;;35.95;16.31;100447.28;4764212;29;20898;-80
2022/08/27 11:17:44;;;;;;;15.35;13.35;;;;;;;35.67;16.70;100451.06;4780249;29;20071;-81
2022/08/27 11:20:24;;;;;;;15.57;13.02;;;;;;;35.45;16.69;100452.50;4779665;29;20073;-84
2022/08/27 11:22:56;;;;;;;14.83;12.63;;;;;;;35.18;17.00;100453.50;4777177;29;20043;-82
2022/08/27 11:25:35;;;;;;;14.90;13.35;;;;;;;34.93;17.17;100459.50;4779547;29;20296;-81
2022/08/27 11:28:05;;;;;;;18.83;13.70;;;;;;;34.92;16.96;100440.78;4783951;29;20143;-84
2022/08/27 11:30:44;;;;;;;16.50;14.07;;;;;;;35.02;17.37;100435.28;4770039;29;20063;-83
2022/08/27 11:33:22;;;;;;;16.63;14.63;;;;;;;35.13;17.13;100441.28;4782616;29;20051;-84
2022/08/27 11:36:23;;;;;;;18.63;13.07;;;;;;;34.92;17.41;100440.78;4789207;29;20051;-84
2022/08/27 11:39:19;;;;;;;18.55;12.48;;;;;;;34.49;17.40;100402.75;4788415;29;20054;-80
2022/08/27 11:42:23;;;;;;;13.55;11.65;;;;;;;34.72;17.60;100430.16;4788402;29;20104;-80
2022/08/27 11:45:03;;;;;;;17.05;12.77;;;;;;;34.73;17.66;100423.75;4785518;29;20067;-82